createdAt,value
2018-06-20T00:00:56.673Z,0.00
2018-06-20T00:01:56.629Z,0.00
2018-06-20T00:02:56.607Z,0.00
2018-06-20T00:03:56.559Z,0.00
2018-06-20T00:04:56.521Z,0.00
2018-06-20T00:05:56.481Z,0.00
2018-06-20T00:06:56.507Z,0.00
2018-06-20T00:07:56.414Z,0.00
2018-06-20T00:08:56.379Z,0.00
2018-06-20T00:09:56.325Z,0.00
2018-06-20T00:10:56.296Z,0.00
2018-06-20T00:11:56.278Z,0.00
2018-06-20T00:12:56.242Z,0.00
2018-06-20T00:13:56.207Z,0.00
2018-06-20T00:14:56.160Z,0.00
2018-06-20T00:15:56.132Z,0.00
2018-06-20T00:16:56.116Z,0.00
2018-06-20T00:17:56.067Z,0.00
2018-06-20T00:18:56.039Z,0.00
2018-06-20T00:19:55.992Z,0.00
2018-06-20T00:20:55.939Z,0.00
2018-06-20T00:21:55.908Z,0.00
2018-06-20T00:22:55.881Z,0.00
2018-06-20T00:23:55.856Z,0.00
2018-06-20T00:24:55.814Z,0.00
2018-06-20T00:25:55.789Z,0.00
2018-06-20T00:26:55.750Z,0.00
2018-06-20T00:27:55.698Z,0.00
2018-06-20T00:28:55.671Z,0.00
2018-06-20T00:29:55.727Z,0.00
2018-06-20T00:30:55.590Z,0.00
2018-06-20T00:31:55.569Z,0.00
2018-06-20T00:32:55.532Z,0.00
2018-06-20T00:33:55.478Z,0.00
2018-06-20T00:34:55.452Z,0.00
2018-06-20T00:35:55.451Z,0.00
2018-06-20T00:36:55.383Z,0.00
2018-06-20T00:37:55.373Z,0.00
2018-06-20T00:38:55.332Z,0.00
2018-06-20T00:39:55.273Z,0.00
2018-06-20T00:40:55.244Z,0.00
2018-06-20T00:41:55.195Z,0.00
2018-06-20T00:42:55.155Z,0.00
2018-06-20T00:43:55.124Z,0.00
2018-06-20T00:44:55.180Z,0.00
2018-06-20T00:45:55.085Z,0.00
2018-06-20T00:46:55.020Z,0.00
2018-06-20T00:47:54.987Z,0.00
2018-06-20T00:48:54.975Z,0.00
2018-06-20T00:49:55.030Z,0.00
2018-06-20T00:50:54.894Z,0.00
2018-06-20T00:51:54.854Z,0.00
2018-06-20T00:52:54.820Z,0.00
2018-06-20T00:53:54.774Z,0.00
2018-06-20T00:54:54.741Z,0.00
2018-06-20T00:55:54.702Z,0.00
2018-06-20T00:56:54.666Z,0.00
2018-06-20T00:57:54.657Z,0.00
2018-06-20T00:58:54.599Z,0.00
2018-06-20T00:59:54.590Z,0.00
2018-06-20T01:00:54.537Z,0.00
2018-06-20T01:01:54.484Z,0.00
2018-06-20T01:02:54.483Z,0.00
2018-06-20T01:03:54.437Z,0.00
2018-06-20T01:04:54.401Z,0.00
2018-06-20T01:05:54.399Z,0.00
2018-06-20T01:06:54.335Z,0.00
2018-06-20T01:07:54.288Z,0.00
2018-06-20T01:08:54.265Z,0.00
2018-06-20T01:09:54.210Z,0.00
2018-06-20T01:10:54.195Z,0.00
2018-06-20T01:11:54.259Z,0.00
2018-06-20T01:12:54.121Z,0.00
2018-06-20T01:13:54.103Z,0.00
2018-06-20T01:14:54.036Z,0.00
2018-06-20T01:15:54.047Z,0.00
2018-06-20T01:16:53.979Z,0.00
2018-06-20T01:17:53.935Z,0.00
2018-06-20T01:18:53.918Z,0.00
2018-06-20T01:19:53.863Z,0.00
2018-06-20T01:20:53.847Z,0.00
2018-06-20T01:21:53.796Z,0.00
2018-06-20T01:22:53.760Z,0.00
2018-06-20T01:23:53.717Z,0.00
2018-06-20T01:24:53.690Z,0.00
2018-06-20T01:25:53.693Z,0.00
2018-06-20T01:26:53.630Z,0.00
2018-06-20T01:27:53.604Z,0.00
2018-06-20T01:28:53.554Z,0.00
2018-06-20T01:29:53.514Z,0.00
2018-06-20T01:30:53.491Z,0.00
2018-06-20T01:31:53.460Z,0.00
2018-06-20T01:32:53.431Z,0.00
2018-06-20T01:33:53.367Z,0.00
2018-06-20T01:34:53.373Z,0.00
2018-06-20T01:35:53.327Z,0.00
2018-06-20T01:36:53.257Z,0.00
2018-06-20T01:37:53.265Z,0.00
2018-06-20T01:38:53.195Z,0.00
2018-06-20T01:39:53.176Z,0.00
2018-06-20T01:40:53.169Z,0.00
2018-06-20T01:41:53.102Z,0.00
2018-06-20T01:42:53.053Z,0.00
2018-06-20T01:43:53.011Z,0.00
2018-06-20T01:44:53.035Z,0.00
2018-06-20T01:45:52.958Z,0.00
2018-06-20T01:46:52.916Z,0.00
2018-06-20T01:47:52.872Z,0.00
2018-06-20T01:48:52.844Z,0.00
2018-06-20T01:49:52.829Z,0.00
2018-06-20T01:50:52.786Z,0.00
2018-06-20T01:51:52.748Z,0.00
2018-06-20T01:52:52.704Z,0.00
2018-06-20T01:53:52.666Z,0.00
2018-06-20T01:54:52.663Z,0.00
2018-06-20T01:55:52.657Z,0.00
2018-06-20T01:56:52.562Z,0.00
2018-06-20T01:57:52.600Z,0.00
2018-06-20T01:58:52.508Z,0.00
2018-06-20T01:59:52.497Z,0.00
2018-06-20T02:00:52.434Z,0.00
2018-06-20T02:01:52.416Z,0.00
2018-06-20T02:02:52.357Z,0.00
2018-06-20T02:03:52.329Z,0.00
2018-06-20T02:04:52.298Z,0.00
2018-06-20T02:05:52.342Z,0.00
2018-06-20T02:06:52.236Z,0.00
2018-06-20T02:07:52.189Z,0.00
2018-06-20T02:08:52.172Z,0.00
2018-06-20T02:09:52.120Z,0.00
2018-06-20T02:10:52.103Z,0.00
2018-06-20T02:11:52.136Z,0.00
2018-06-20T02:12:52.012Z,0.00
2018-06-20T02:13:51.977Z,0.00
2018-06-20T02:14:51.950Z,0.00
2018-06-20T02:15:51.887Z,0.00
2018-06-20T02:16:51.920Z,0.00
2018-06-20T02:17:51.857Z,0.00
2018-06-20T02:18:51.820Z,0.00
2018-06-20T02:19:51.815Z,0.00
2018-06-20T02:20:51.779Z,0.00
2018-06-20T02:21:51.694Z,0.00
2018-06-20T02:22:51.687Z,0.00
2018-06-20T02:23:51.711Z,0.00
2018-06-20T02:24:51.637Z,0.00
2018-06-20T02:25:51.548Z,0.00
2018-06-20T02:26:51.525Z,0.00
2018-06-20T02:27:51.508Z,0.00
2018-06-20T02:28:51.468Z,0.00
2018-06-20T02:29:51.437Z,0.00
2018-06-20T02:30:51.481Z,0.00
2018-06-20T02:31:51.401Z,0.00
2018-06-20T02:32:51.325Z,0.00
2018-06-20T02:33:51.308Z,0.00
2018-06-20T02:34:51.280Z,0.00
2018-06-20T02:35:51.232Z,0.00
2018-06-20T02:36:51.201Z,0.00
2018-06-20T02:37:51.270Z,0.00
2018-06-20T02:38:51.147Z,0.00
2018-06-20T02:39:51.187Z,0.00
2018-06-20T02:40:51.079Z,0.00
2018-06-20T02:41:51.041Z,5.63
2018-06-20T02:42:50.988Z,5.63
2018-06-20T02:43:51.012Z,5.63
2018-06-20T02:44:50.986Z,5.63
2018-06-20T02:45:50.890Z,5.63
2018-06-20T02:46:50.823Z,5.63
2018-06-20T02:47:50.800Z,5.63
2018-06-20T02:48:50.767Z,5.63
2018-06-20T02:49:50.711Z,11.25
2018-06-20T02:50:50.699Z,11.25
2018-06-20T02:51:50.662Z,11.25
2018-06-20T02:52:50.700Z,11.25
2018-06-20T02:53:50.624Z,11.25
2018-06-20T02:54:50.553Z,16.88
2018-06-20T02:55:50.526Z,16.88
2018-06-20T02:56:50.532Z,16.88
2018-06-20T02:57:50.445Z,22.50
2018-06-20T02:58:50.457Z,22.50
2018-06-20T02:59:50.399Z,22.50
2018-06-20T03:00:50.343Z,28.13
2018-06-20T03:01:50.302Z,28.13
2018-06-20T03:02:50.276Z,28.13
2018-06-20T03:03:50.335Z,33.75
2018-06-20T03:04:50.201Z,33.75
2018-06-20T03:05:50.176Z,33.75
2018-06-20T03:06:50.976Z,39.38
2018-06-20T03:07:50.120Z,39.38
2018-06-20T03:08:50.066Z,45.00
2018-06-20T03:09:50.090Z,45.00
2018-06-20T03:10:50.050Z,50.63
2018-06-20T03:11:50.476Z,50.63
2018-06-20T03:12:49.920Z,56.25
2018-06-20T03:13:49.918Z,56.25
2018-06-20T03:14:49.860Z,56.25
2018-06-20T03:15:49.837Z,61.88
2018-06-20T03:16:49.802Z,67.50
2018-06-20T03:17:49.766Z,67.50
2018-06-20T03:18:49.733Z,73.13
2018-06-20T03:19:49.683Z,78.75
2018-06-20T03:20:49.645Z,84.38
2018-06-20T03:21:49.604Z,84.38
2018-06-20T03:22:49.607Z,90.00
2018-06-20T03:23:49.630Z,95.63
2018-06-20T03:24:49.508Z,101.25
2018-06-20T03:25:49.489Z,101.25
2018-06-20T03:26:49.437Z,106.88
2018-06-20T03:27:49.489Z,112.50
2018-06-20T03:28:49.356Z,118.13
2018-06-20T03:29:49.469Z,123.75
2018-06-20T03:30:49.326Z,123.75
2018-06-20T03:31:49.276Z,129.38
2018-06-20T03:32:49.252Z,135.00
2018-06-20T03:33:49.229Z,140.63
2018-06-20T03:34:49.215Z,146.25
2018-06-20T03:35:49.175Z,151.88
2018-06-20T03:36:49.091Z,157.50
2018-06-20T03:37:49.099Z,163.13
2018-06-20T03:38:49.094Z,163.13
2018-06-20T03:39:49.008Z,174.38
2018-06-20T03:40:48.970Z,174.38
2018-06-20T03:41:48.971Z,180.00
2018-06-20T03:42:48.899Z,185.63
2018-06-20T03:43:48.831Z,191.25
2018-06-20T03:44:48.820Z,191.25
2018-06-20T03:45:48.759Z,202.50
2018-06-20T03:46:48.708Z,208.13
2018-06-20T03:47:48.780Z,213.75
2018-06-20T03:48:48.729Z,219.38
2018-06-20T03:49:48.645Z,225.00
2018-06-20T03:50:48.601Z,236.25
2018-06-20T03:51:48.550Z,241.88
2018-06-20T03:52:48.537Z,247.50
2018-06-20T03:53:48.478Z,247.50
2018-06-20T03:54:48.490Z,247.50
2018-06-20T03:55:48.454Z,258.75
2018-06-20T03:56:48.386Z,264.38
2018-06-20T03:57:48.349Z,270.00
2018-06-20T03:58:48.304Z,270.00
2018-06-20T03:59:48.283Z,270.00
2018-06-20T04:00:48.277Z,281.25
2018-06-20T04:01:48.213Z,286.88
2018-06-20T04:02:48.165Z,286.88
2018-06-20T04:03:48.120Z,281.25
2018-06-20T04:04:48.138Z,281.25
2018-06-20T04:05:48.057Z,286.88
2018-06-20T04:06:48.023Z,298.13
2018-06-20T04:07:48.030Z,309.38
2018-06-20T04:08:47.962Z,326.25
2018-06-20T04:09:47.971Z,331.88
2018-06-20T04:10:47.909Z,360.00
2018-06-20T04:11:47.882Z,410.63
2018-06-20T04:12:47.880Z,405.00
2018-06-20T04:13:47.789Z,399.38
2018-06-20T04:14:54.603Z,540.00
2018-06-20T04:15:48.688Z,669.38
2018-06-20T04:16:47.691Z,680.63
2018-06-20T04:17:47.777Z,680.63
2018-06-20T04:18:47.617Z,641.25
2018-06-20T04:19:47.591Z,686.25
2018-06-20T04:20:47.597Z,748.13
2018-06-20T04:21:47.521Z,765.00
2018-06-20T04:22:47.494Z,759.38
2018-06-20T04:23:47.453Z,736.88
2018-06-20T04:24:47.413Z,742.50
2018-06-20T04:25:47.428Z,753.75
2018-06-20T04:26:47.361Z,798.75
2018-06-20T04:27:47.333Z,883.13
2018-06-20T04:28:49.064Z,855.00
2018-06-20T04:29:47.272Z,776.25
2018-06-20T04:30:47.290Z,804.38
2018-06-20T04:31:47.175Z,804.38
2018-06-20T04:32:47.161Z,765.00
2018-06-20T04:33:47.123Z,815.63
2018-06-20T04:34:47.209Z,860.63
2018-06-20T04:35:47.140Z,883.13
2018-06-20T04:36:47.070Z,916.88
2018-06-20T04:37:47.018Z,911.25
2018-06-20T04:38:46.983Z,894.38
2018-06-20T04:39:46.929Z,928.13
2018-06-20T04:40:46.909Z,1006.88
2018-06-20T04:41:46.925Z,1012.50
2018-06-20T04:42:46.844Z,973.13
2018-06-20T04:43:46.846Z,995.63
2018-06-20T04:44:46.860Z,984.38
2018-06-20T04:45:46.787Z,1046.25
2018-06-20T04:46:46.768Z,1096.88
2018-06-20T04:47:46.717Z,1051.88
2018-06-20T04:48:46.680Z,945.00
2018-06-20T04:49:46.694Z,978.75
2018-06-20T04:50:46.677Z,939.38
2018-06-20T04:51:46.628Z,843.75
2018-06-20T04:52:46.552Z,883.13
2018-06-20T04:53:46.508Z,984.38
2018-06-20T04:54:46.496Z,736.88
2018-06-20T04:55:46.508Z,703.13
2018-06-20T04:56:46.408Z,697.50
2018-06-20T04:57:46.440Z,686.25
2018-06-20T04:58:46.370Z,691.88
2018-06-20T04:59:46.343Z,697.50
2018-06-20T05:00:46.316Z,714.38
2018-06-20T05:01:46.284Z,731.25
2018-06-20T05:02:46.302Z,742.50
2018-06-20T05:03:46.228Z,759.38
2018-06-20T05:04:46.205Z,742.50
2018-06-20T05:05:46.234Z,731.25
2018-06-20T05:06:46.143Z,720.00
2018-06-20T05:07:46.110Z,703.13
2018-06-20T05:08:46.090Z,703.13
2018-06-20T05:09:46.079Z,708.75
2018-06-20T05:10:46.027Z,708.75
2018-06-20T05:11:46.130Z,708.75
2018-06-20T05:12:45.989Z,714.38
2018-06-20T05:13:45.926Z,725.63
2018-06-20T05:14:45.912Z,742.50
2018-06-20T05:15:45.891Z,753.75
2018-06-20T05:16:45.847Z,759.38
2018-06-20T05:17:45.810Z,753.75
2018-06-20T05:18:45.825Z,742.50
2018-06-20T05:19:45.774Z,748.13
2018-06-20T05:20:45.819Z,748.13
2018-06-20T05:21:45.715Z,748.13
2018-06-20T05:22:45.682Z,753.75
2018-06-20T05:23:45.646Z,759.38
2018-06-20T05:24:45.610Z,765.00
2018-06-20T05:25:46.537Z,787.50
2018-06-20T05:26:45.565Z,810.00
2018-06-20T05:27:45.651Z,826.88
2018-06-20T05:28:45.500Z,832.50
2018-06-20T05:29:45.476Z,849.38
2018-06-20T05:30:45.447Z,871.88
2018-06-20T05:31:45.406Z,933.75
2018-06-20T05:32:45.416Z,905.63
2018-06-20T05:33:45.344Z,922.50
2018-06-20T05:34:45.341Z,961.88
2018-06-20T05:35:45.306Z,1125.00
2018-06-20T05:36:45.258Z,1755.00
2018-06-20T05:37:45.225Z,961.88
2018-06-20T05:38:45.204Z,945.00
2018-06-20T05:39:45.175Z,956.25
2018-06-20T05:40:45.161Z,973.13
2018-06-20T05:41:45.179Z,990.00
2018-06-20T05:42:45.092Z,1755.00
2018-06-20T05:43:45.059Z,1051.88
2018-06-20T05:44:45.103Z,1012.50
2018-06-20T05:45:45.008Z,995.63
2018-06-20T05:46:44.988Z,973.13
2018-06-20T05:47:44.956Z,967.50
2018-06-20T05:48:44.943Z,973.13
2018-06-20T05:49:44.892Z,1237.50
2018-06-20T05:50:44.871Z,1321.88
2018-06-20T05:51:44.853Z,1023.75
2018-06-20T05:52:44.800Z,1029.38
2018-06-20T05:53:44.763Z,1046.25
2018-06-20T05:54:44.776Z,1063.13
2018-06-20T05:55:44.776Z,1113.75
2018-06-20T05:56:44.731Z,1125.00
2018-06-20T05:57:44.730Z,1108.13
2018-06-20T05:58:44.640Z,1068.75
2018-06-20T05:59:44.612Z,1068.75
2018-06-20T06:00:44.573Z,1074.38
2018-06-20T06:01:44.546Z,1096.88
2018-06-20T06:02:44.525Z,1136.25
2018-06-20T06:03:44.509Z,1198.13
2018-06-20T06:04:44.487Z,1276.88
2018-06-20T06:05:44.456Z,1321.88
2018-06-20T06:06:44.444Z,1383.75
2018-06-20T06:07:44.421Z,1490.63
2018-06-20T06:08:44.350Z,1580.63
2018-06-20T06:09:44.349Z,1715.63
2018-06-20T06:10:44.301Z,1490.63
2018-06-20T06:11:44.290Z,1428.75
2018-06-20T06:12:44.309Z,1845.00
2018-06-20T06:13:44.225Z,1569.38
2018-06-20T06:14:44.224Z,1440.00
2018-06-20T06:15:44.184Z,1366.88
2018-06-20T06:16:44.213Z,1372.50
2018-06-20T06:17:44.107Z,1541.25
2018-06-20T06:18:44.075Z,1445.63
2018-06-20T06:19:44.133Z,1428.75
2018-06-20T06:20:44.033Z,1406.25
2018-06-20T06:21:44.044Z,1310.63
2018-06-20T06:22:44.046Z,1299.38
2018-06-20T06:23:43.968Z,1310.63
2018-06-20T06:24:43.917Z,1485.00
2018-06-20T06:25:43.877Z,1591.88
2018-06-20T06:26:43.923Z,1372.50
2018-06-20T06:27:43.879Z,1411.88
2018-06-20T06:28:43.812Z,1428.75
2018-06-20T06:29:43.784Z,1496.25
2018-06-20T06:30:43.768Z,1411.88
2018-06-20T06:31:43.757Z,1411.88
2018-06-20T06:32:43.705Z,1451.25
2018-06-20T06:33:43.665Z,1456.88
2018-06-20T06:34:44.571Z,1473.75
2018-06-20T06:35:43.656Z,1507.50
2018-06-20T06:36:44.562Z,1513.13
2018-06-20T06:37:43.685Z,1501.88
2018-06-20T06:38:43.553Z,1513.13
2018-06-20T06:39:43.586Z,1541.25
2018-06-20T06:40:43.531Z,1563.75
2018-06-20T06:41:43.467Z,1591.88
2018-06-20T06:42:43.427Z,1636.88
2018-06-20T06:43:43.448Z,1687.50
2018-06-20T06:44:43.379Z,1777.50
2018-06-20T06:45:43.381Z,1777.50
2018-06-20T06:46:43.319Z,1811.25
2018-06-20T06:47:43.283Z,1867.50
2018-06-20T06:48:43.329Z,1861.88
2018-06-20T06:49:43.309Z,1901.25
2018-06-20T06:50:43.241Z,2120.63
2018-06-20T06:51:43.200Z,1805.63
2018-06-20T06:52:43.168Z,1693.13
2018-06-20T06:53:43.298Z,1687.50
2018-06-20T06:54:44.113Z,1732.50
2018-06-20T06:55:43.098Z,1828.13
2018-06-20T06:56:43.168Z,1974.38
2018-06-20T06:57:43.091Z,2289.38
2018-06-20T06:58:42.995Z,2025.00
2018-06-20T06:59:42.978Z,2385.00
2018-06-20T07:00:42.967Z,2705.63
2018-06-20T07:01:42.980Z,1816.88
2018-06-20T07:02:43.039Z,1783.13
2018-06-20T07:03:42.924Z,1822.50
2018-06-20T07:04:42.871Z,1805.63
2018-06-20T07:05:42.853Z,1788.75
2018-06-20T07:06:42.833Z,1828.13
2018-06-20T07:07:42.774Z,1755.00
2018-06-20T07:08:42.766Z,1732.50
2018-06-20T07:09:42.750Z,1710.00
2018-06-20T07:10:42.714Z,1704.38
2018-06-20T07:11:42.661Z,1715.63
2018-06-20T07:12:42.650Z,1760.63
2018-06-20T07:13:42.617Z,1794.38
2018-06-20T07:14:42.599Z,1867.50
2018-06-20T07:15:42.574Z,1929.38
2018-06-20T07:16:42.640Z,2272.50
2018-06-20T07:17:42.511Z,2778.75
2018-06-20T07:18:42.530Z,2109.38
2018-06-20T07:19:42.475Z,3465.00
2018-06-20T07:20:42.451Z,2823.75
2018-06-20T07:21:42.441Z,3211.88
2018-06-20T07:22:42.499Z,3538.13
2018-06-20T07:23:42.518Z,3875.63
2018-06-20T07:24:42.341Z,1749.38
2018-06-20T07:25:42.339Z,1721.25
2018-06-20T07:26:42.358Z,1766.25
2018-06-20T07:27:42.318Z,2255.63
2018-06-20T07:28:42.281Z,4100.63
2018-06-20T07:29:42.245Z,4140.00
2018-06-20T07:30:43.084Z,3993.75
2018-06-20T07:31:42.255Z,4185.00
2018-06-20T07:32:42.215Z,4140.00
2018-06-20T07:33:42.152Z,4522.50
2018-06-20T07:34:42.105Z,4410.00
2018-06-20T07:35:42.208Z,2745.00
2018-06-20T07:36:42.068Z,2694.38
2018-06-20T07:37:42.065Z,3037.50
2018-06-20T07:38:42.054Z,2587.50
2018-06-20T07:39:41.992Z,2351.25
2018-06-20T07:40:41.979Z,4567.50
2018-06-20T07:41:41.962Z,4606.88
2018-06-20T07:42:42.033Z,2480.63
2018-06-20T07:43:41.918Z,2435.63
2018-06-20T07:44:41.925Z,1884.38
2018-06-20T07:45:41.877Z,4173.75
2018-06-20T07:46:41.879Z,1670.63
2018-06-20T07:47:41.915Z,3886.88
2018-06-20T07:48:41.833Z,3408.75
2018-06-20T07:49:41.800Z,4145.63
2018-06-20T07:50:41.840Z,4280.63
2018-06-20T07:51:41.761Z,4336.88
2018-06-20T07:52:41.739Z,3386.25
2018-06-20T07:53:41.706Z,3380.63
2018-06-20T07:54:41.685Z,4145.63
2018-06-20T07:55:41.661Z,4100.63
2018-06-20T07:56:41.646Z,4488.75
2018-06-20T07:57:41.624Z,4072.50
2018-06-20T07:58:41.619Z,3521.25
2018-06-20T07:59:41.584Z,4078.13
2018-06-20T08:00:41.642Z,4196.25
2018-06-20T08:01:41.581Z,3881.25
2018-06-20T08:02:41.609Z,3825.00
2018-06-20T08:03:41.499Z,4140.00
2018-06-20T08:04:41.504Z,4016.25
2018-06-20T08:05:41.475Z,4359.38
2018-06-20T08:06:41.455Z,4173.75
2018-06-20T08:07:41.446Z,3892.50
2018-06-20T08:08:41.423Z,4961.25
2018-06-20T08:09:41.391Z,4494.38
2018-06-20T08:10:41.398Z,3993.75
2018-06-20T08:11:41.362Z,4291.88
2018-06-20T08:12:41.339Z,4134.38
2018-06-20T08:13:41.354Z,4123.13
2018-06-20T08:14:41.325Z,4393.13
2018-06-20T08:15:41.272Z,4584.38
2018-06-20T08:16:41.264Z,4635.00
2018-06-20T08:17:41.291Z,4387.50
2018-06-20T08:18:41.259Z,4764.38
2018-06-20T08:19:41.235Z,4432.50
2018-06-20T08:20:41.207Z,4837.50
2018-06-20T08:21:41.167Z,4916.25
2018-06-20T08:22:41.167Z,3976.88
2018-06-20T08:23:41.213Z,4370.63
2018-06-20T08:24:41.129Z,5518.13
2018-06-20T08:25:41.166Z,5118.75
2018-06-20T08:26:41.101Z,4696.88
2018-06-20T08:27:41.064Z,5298.75
2018-06-20T08:28:41.069Z,4708.13
2018-06-20T08:29:41.100Z,4280.63
2018-06-20T08:30:41.009Z,4376.25
2018-06-20T08:31:40.976Z,4966.88
2018-06-20T08:32:41.003Z,5433.75
2018-06-20T08:33:40.958Z,5214.38
2018-06-20T08:34:40.934Z,5191.88
2018-06-20T08:35:40.933Z,5096.25
2018-06-20T08:36:40.930Z,4826.25
2018-06-20T08:37:40.878Z,4882.50
2018-06-20T08:38:40.869Z,4826.25
2018-06-20T08:39:40.848Z,2638.13
2018-06-20T08:40:40.843Z,2396.25
2018-06-20T08:41:40.828Z,5445.00
2018-06-20T08:42:40.829Z,6328.13
2018-06-20T08:43:40.813Z,6052.50
2018-06-20T08:44:40.789Z,4151.25
2018-06-20T08:45:40.735Z,3414.38
2018-06-20T08:46:40.760Z,1670.63
2018-06-20T08:47:40.741Z,4860.00
2018-06-20T08:48:40.680Z,5270.63
2018-06-20T08:49:40.664Z,4657.50
2018-06-20T08:50:40.654Z,4612.50
2018-06-20T08:51:40.627Z,5152.50
2018-06-20T08:52:40.603Z,4826.25
2018-06-20T08:53:40.647Z,5265.00
2018-06-20T08:54:40.588Z,5670.00
2018-06-20T08:55:40.559Z,5861.25
2018-06-20T08:56:40.539Z,1299.38
2018-06-20T08:57:40.532Z,1316.25
2018-06-20T08:58:40.514Z,1456.88
2018-06-20T08:59:40.518Z,4905.00
2018-06-20T09:00:40.505Z,4770.00
2018-06-20T09:01:40.462Z,5248.13
2018-06-20T09:02:40.444Z,1901.25
2018-06-20T09:03:40.433Z,2041.88
2018-06-20T09:04:40.415Z,1935.00
2018-06-20T09:05:40.419Z,1490.63
2018-06-20T09:06:40.381Z,1400.63
2018-06-20T09:07:40.371Z,1468.13
2018-06-20T09:08:40.356Z,1456.88
2018-06-20T09:09:40.327Z,5000.63
2018-06-20T09:10:40.306Z,4668.75
2018-06-20T09:11:40.300Z,4246.88
2018-06-20T09:12:40.264Z,5461.88
2018-06-20T09:13:40.239Z,5568.75
2018-06-20T09:14:40.231Z,5023.13
2018-06-20T09:15:40.219Z,4269.38
2018-06-20T09:16:40.191Z,3549.38
2018-06-20T09:17:40.171Z,2019.38
2018-06-20T09:18:40.150Z,1670.63
2018-06-20T09:19:40.134Z,4640.63
2018-06-20T09:20:40.113Z,4770.00
2018-06-20T09:21:40.090Z,5079.38
2018-06-20T09:22:40.079Z,5326.88
2018-06-20T09:23:40.655Z,5490.00
2018-06-20T09:24:42.718Z,6148.13
2018-06-20T09:25:40.010Z,5866.88
2018-06-20T09:26:40.030Z,5613.75
2018-06-20T09:27:39.988Z,5568.75
2018-06-20T09:28:39.985Z,5473.13
2018-06-20T09:29:39.940Z,4860.00
2018-06-20T09:30:39.926Z,5557.50
2018-06-20T09:31:39.891Z,5670.00
2018-06-20T09:32:39.880Z,5512.50
2018-06-20T09:33:39.875Z,5214.38
2018-06-20T09:34:39.859Z,4921.88
2018-06-20T09:35:39.843Z,5017.50
2018-06-20T09:36:39.852Z,5225.63
2018-06-20T09:37:40.633Z,2008.13
2018-06-20T09:38:39.849Z,3915.00
2018-06-20T09:39:39.830Z,1766.25
2018-06-20T09:40:39.756Z,2199.38
2018-06-20T09:41:39.737Z,1636.88
2018-06-20T09:42:39.713Z,1738.13
2018-06-20T09:43:39.682Z,1715.63
2018-06-20T09:44:39.696Z,5788.13
2018-06-20T09:45:39.650Z,5546.25
2018-06-20T09:46:39.638Z,5051.25
2018-06-20T09:47:39.624Z,6609.38
2018-06-20T09:48:39.580Z,6744.38
2018-06-20T09:49:39.588Z,4978.13
2018-06-20T09:50:39.564Z,4753.13
2018-06-20T09:51:39.550Z,2221.88
2018-06-20T09:52:39.538Z,2379.38
2018-06-20T09:53:39.494Z,6024.38
2018-06-20T09:54:39.472Z,5484.38
2018-06-20T09:55:39.461Z,5259.38
2018-06-20T09:56:39.461Z,5017.50
2018-06-20T09:57:39.480Z,2885.63
2018-06-20T09:58:39.401Z,2289.38
2018-06-20T09:59:39.380Z,4207.50
2018-06-20T10:00:39.397Z,2266.88
2018-06-20T10:01:39.463Z,2143.13
2018-06-20T10:02:39.346Z,2216.25
2018-06-20T10:03:39.368Z,5866.88
2018-06-20T10:04:39.319Z,2131.88
2018-06-20T10:05:39.296Z,2688.75
2018-06-20T10:06:39.287Z,5557.50
2018-06-20T10:07:39.276Z,4196.25
2018-06-20T10:08:39.217Z,5506.88
2018-06-20T10:09:39.211Z,5850.00
2018-06-20T10:10:39.182Z,5692.50
2018-06-20T10:11:39.183Z,5163.75
2018-06-20T10:12:39.127Z,5574.38
2018-06-20T10:13:39.115Z,5355.00
2018-06-20T10:14:39.086Z,5338.13
2018-06-20T10:15:39.112Z,5523.75
2018-06-20T10:16:39.130Z,5203.13
2018-06-20T10:17:39.072Z,6114.38
2018-06-20T10:18:39.022Z,5855.63
2018-06-20T10:19:39.026Z,5017.50
2018-06-20T10:20:38.981Z,4815.00
2018-06-20T10:21:38.978Z,5478.75
2018-06-20T10:22:38.993Z,6148.13
2018-06-20T10:23:38.925Z,5220.00
2018-06-20T10:24:38.922Z,5872.50
2018-06-20T10:25:38.889Z,6502.50
2018-06-20T10:26:38.859Z,5850.00
2018-06-20T10:27:38.827Z,5889.38
2018-06-20T10:28:38.889Z,6243.75
2018-06-20T10:29:38.831Z,2576.25
2018-06-20T10:30:38.808Z,6356.25
2018-06-20T10:31:38.778Z,6699.38
2018-06-20T10:32:38.765Z,6564.38
2018-06-20T10:33:38.740Z,5355.00
2018-06-20T10:34:38.716Z,5360.63
2018-06-20T10:35:38.711Z,4078.13
2018-06-20T10:36:38.676Z,3121.88
2018-06-20T10:37:38.664Z,5535.00
2018-06-20T10:38:38.641Z,6255.00
2018-06-20T10:39:38.611Z,4815.00
2018-06-20T10:40:38.608Z,3442.50
2018-06-20T10:41:38.614Z,6457.50
2018-06-20T10:42:38.564Z,6210.00
2018-06-20T10:43:38.548Z,6125.63
2018-06-20T10:44:38.538Z,5827.50
2018-06-20T10:45:38.555Z,5821.88
2018-06-20T10:46:38.482Z,5731.88
2018-06-20T10:47:38.479Z,6491.25
2018-06-20T10:48:38.447Z,7104.38
2018-06-20T10:49:38.432Z,2019.38
2018-06-20T10:50:38.408Z,1771.88
2018-06-20T10:51:38.409Z,1687.50
2018-06-20T10:52:38.376Z,1929.38
2018-06-20T10:53:38.363Z,6457.50
2018-06-20T10:54:38.336Z,6525.00
2018-06-20T10:55:38.352Z,6693.75
2018-06-20T10:56:38.310Z,2261.25
2018-06-20T10:57:38.292Z,1698.75
2018-06-20T10:58:38.267Z,1563.75
2018-06-20T10:59:38.263Z,1642.50
2018-06-20T11:00:38.227Z,1726.88
2018-06-20T11:01:38.220Z,3785.63
2018-06-20T11:02:38.205Z,6609.38
2018-06-20T11:03:38.197Z,5883.75
2018-06-20T11:04:38.155Z,5883.75
2018-06-20T11:05:38.157Z,6086.25
2018-06-20T11:06:38.126Z,6643.13
2018-06-20T11:07:38.138Z,6896.25
2018-06-20T11:08:38.109Z,6350.63
2018-06-20T11:09:38.094Z,5765.63
2018-06-20T11:10:38.041Z,5422.50
2018-06-20T11:11:38.047Z,6586.88
2018-06-20T11:12:38.024Z,1906.88
2018-06-20T11:13:37.992Z,4938.75
2018-06-20T11:14:37.993Z,1963.13
2018-06-20T11:15:37.953Z,2047.50
2018-06-20T11:16:37.920Z,2266.88
2018-06-20T11:17:37.957Z,6339.38
2018-06-20T11:18:37.887Z,2103.75
2018-06-20T11:19:37.866Z,5383.13
2018-06-20T11:20:37.919Z,6255.00
2018-06-20T11:21:37.848Z,7160.63
2018-06-20T11:22:37.807Z,6946.88
2018-06-20T11:23:37.805Z,6159.38
2018-06-20T11:24:37.772Z,5428.13
2018-06-20T11:25:37.768Z,5546.25
2018-06-20T11:26:37.730Z,5799.38
2018-06-20T11:27:37.714Z,5737.50
2018-06-20T11:28:37.711Z,5754.38
2018-06-20T11:29:37.676Z,6080.63
2018-06-20T11:30:37.706Z,6446.25
2018-06-20T11:31:37.633Z,6097.50
2018-06-20T11:32:37.609Z,6384.38
2018-06-20T11:33:37.618Z,6238.13
2018-06-20T11:34:37.598Z,5596.88
2018-06-20T11:35:37.584Z,6125.63
2018-06-20T11:36:37.569Z,5540.63
2018-06-20T11:37:37.559Z,5923.13
2018-06-20T11:38:37.499Z,6468.75
2018-06-20T11:39:37.509Z,6446.25
2018-06-20T11:40:37.498Z,7329.38
2018-06-20T11:41:37.454Z,6243.75
2018-06-20T11:42:37.434Z,5394.38
2018-06-20T11:43:37.412Z,6097.50
2018-06-20T11:44:37.374Z,6800.63
2018-06-20T11:45:37.362Z,6491.25
2018-06-20T11:46:37.357Z,6502.50
2018-06-20T11:47:37.317Z,5630.63
2018-06-20T11:48:37.297Z,3420.00
2018-06-20T11:49:37.297Z,2508.75
2018-06-20T11:50:37.279Z,5799.38
2018-06-20T11:51:37.262Z,6086.25
2018-06-20T11:52:37.237Z,6783.75
2018-06-20T11:53:37.216Z,6536.25
2018-06-20T11:54:37.207Z,5805.00
2018-06-20T11:55:37.191Z,6075.00
2018-06-20T11:56:37.184Z,5636.25
2018-06-20T11:57:37.147Z,2441.25
2018-06-20T11:58:37.133Z,1749.38
2018-06-20T11:59:37.201Z,1608.75
2018-06-20T12:00:37.096Z,3993.75
2018-06-20T12:01:37.087Z,5445.00
2018-06-20T12:02:37.140Z,6221.25
2018-06-20T12:03:37.073Z,5996.25
2018-06-20T12:04:37.039Z,6474.38
2018-06-20T12:05:36.998Z,5743.13
2018-06-20T12:06:36.965Z,1951.88
2018-06-20T12:07:36.947Z,1918.13
2018-06-20T12:08:36.930Z,2036.25
2018-06-20T12:09:36.924Z,2002.50
2018-06-20T12:10:36.921Z,2576.25
2018-06-20T12:11:36.914Z,3037.50
2018-06-20T12:12:36.873Z,4781.25
2018-06-20T12:13:36.926Z,1845.00
2018-06-20T12:14:36.825Z,1811.25
2018-06-20T12:15:36.824Z,2238.75
2018-06-20T12:16:36.797Z,6823.13
2018-06-20T12:17:36.781Z,6525.00
2018-06-20T12:18:36.754Z,2148.75
2018-06-20T12:19:36.755Z,2103.75
2018-06-20T12:20:36.722Z,2475.00
2018-06-20T12:21:36.701Z,6485.63
2018-06-20T12:22:36.681Z,5827.50
2018-06-20T12:23:36.670Z,5636.25
2018-06-20T12:24:36.625Z,5793.75
2018-06-20T12:25:36.609Z,5698.13
2018-06-20T12:26:36.584Z,5085.00
2018-06-20T12:27:36.586Z,5191.88